createdAt,value
2023-01-01T00:02:38.564Z,14.4
2023-01-01T00:08:31.182Z,14.2
2023-01-01T00:14:23.607Z,14.2
2023-01-01T00:20:15.128Z,14.1
2023-01-01T00:26:15.904Z,14.1
2023-01-01T00:32:11.824Z,14.1
2023-01-01T00:38:13.707Z,14.1
2023-01-01T00:44:06.488Z,14.1
2023-01-01T00:50:01.779Z,14.1
2023-01-01T00:55:55.222Z,14.1
2023-01-01T01:01:52.940Z,14
2023-01-01T01:07:45.629Z,14.1
2023-01-01T01:13:43.205Z,14
2023-01-01T01:19:37.608Z,14.1
2023-01-01T01:25:34.523Z,14.1
2023-01-01T01:31:27.194Z,14.2
2023-01-01T01:37:19.887Z,14.4
2023-01-01T01:43:12.466Z,14.3
2023-01-01T01:49:07.304Z,14.6
2023-01-01T01:55:01.791Z,14.7
2023-01-01T02:00:56.698Z,14.7
2023-01-01T02:06:47.570Z,14.6
2023-01-01T02:12:36.583Z,14.6
2023-01-01T02:18:29.341Z,14.6
2023-01-01T02:24:18.252Z,14.6
2023-01-01T02:30:06.964Z,14.6
2023-01-01T02:35:56.287Z,14.6
2023-01-01T02:41:45.586Z,14.6
2023-01-01T02:47:37.275Z,14.7
2023-01-01T02:53:26.723Z,14.7
2023-01-01T02:59:16.385Z,14.6
2023-01-01T03:05:05.202Z,14.6
2023-01-01T03:10:56.041Z,14.6
2023-01-01T03:16:45.959Z,14.6
2023-01-01T03:28:29.744Z,14.7
2023-01-01T03:34:19.346Z,14.6
2023-01-01T03:40:11.816Z,14.6
2023-01-01T03:46:02.502Z,14.7
2023-01-01T03:51:54.781Z,14.7
2023-01-01T03:57:44.594Z,14.7
2023-01-01T04:03:33.570Z,14.7
2023-01-01T04:09:26.528Z,14.7
2023-01-01T04:15:15.835Z,14.7
2023-01-01T04:21:07.373Z,14.6
2023-01-01T04:26:59.083Z,14.7
2023-01-01T04:32:48.855Z,14.7
2023-01-01T04:38:37.119Z,14.7
2023-01-01T04:44:28.594Z,14.7
2023-01-01T04:50:15.835Z,14.6
2023-01-01T04:56:03.300Z,14.7
2023-01-01T05:01:52.367Z,14.6
2023-01-01T05:07:44.667Z,14.7
2023-01-01T05:13:32.740Z,14.6
2023-01-01T05:19:21.022Z,14.6
2023-01-01T05:25:08.488Z,14.5
2023-01-01T05:31:00.263Z,14.4
2023-01-01T05:36:51.779Z,14.4
2023-01-01T05:42:41.998Z,14.3
2023-01-01T05:48:30.695Z,14.2
2023-01-01T06:00:06.988Z,14.2
2023-01-01T06:05:56.443Z,14.1
2023-01-01T06:11:46.130Z,14.2
2023-01-01T06:17:35.777Z,14.2
2023-01-01T06:23:26.289Z,14.3
2023-01-01T06:29:14.793Z,14.4
2023-01-01T06:35:04.277Z,14.4
2023-01-01T06:40:55.227Z,14.4
2023-01-01T06:46:43.494Z,14.4
2023-01-01T06:52:32.637Z,14.4
2023-01-01T06:58:21.205Z,14.3
2023-01-01T07:04:11.578Z,14.4
2023-01-01T07:10:00.965Z,14.4
2023-01-01T07:15:49.370Z,14.4
2023-01-01T07:21:38.793Z,14.3
2023-01-01T07:27:27.875Z,14.4
2023-01-01T07:33:17.871Z,14.3
2023-01-01T07:39:07.385Z,14.4
2023-01-01T07:44:57.956Z,14.4
2023-01-01T07:50:47.546Z,14.4
2023-01-01T07:56:37.809Z,14.4
2023-01-01T08:03:35.971Z,14.4
2023-01-01T08:09:26.354Z,14.5
2023-01-01T08:15:17.441Z,14.5
2023-01-01T08:21:09.283Z,14.4
2023-01-01T08:27:00.339Z,14.5
2023-01-01T08:32:52.048Z,14.5
2023-01-01T08:38:43.626Z,14.5
2023-01-01T08:44:34.664Z,14.5
2023-01-01T08:50:25.727Z,14.5
2023-01-01T08:56:17.261Z,14.5
2023-01-01T09:02:08.149Z,14.5
2023-01-01T09:08:00.941Z,14.4
2023-01-01T09:13:52.985Z,14.5
2023-01-01T09:19:43.398Z,14.5
2023-01-01T09:25:35.470Z,14.6
2023-01-01T09:31:27.566Z,14.5
2023-01-01T09:37:19.479Z,14.5
2023-01-01T09:43:11.049Z,14.5
2023-01-01T09:49:01.422Z,14.5
2023-01-01T09:54:53.115Z,14.5
2023-01-01T10:00:43.943Z,14.5
2023-01-01T10:06:35.646Z,14.5
2023-01-01T10:12:27.980Z,14.5
2023-01-01T10:18:18.704Z,14.5
2023-01-01T10:24:09.726Z,14.6
2023-01-01T10:30:04.057Z,14.6
2023-01-01T10:35:56.140Z,14.6
2023-01-01T10:41:47.127Z,14.6
2023-01-01T10:47:38.957Z,14.7
2023-01-01T10:53:30.317Z,14.7
2023-01-01T10:59:20.932Z,14.7
2023-01-01T11:05:16.411Z,14.7
2023-01-01T11:11:10.967Z,14.7
2023-01-01T11:17:02.089Z,14.6
2023-01-01T11:22:54.688Z,14.6
2023-01-01T11:28:45.334Z,14.7
2023-01-01T11:34:39.394Z,14.7
2023-01-01T11:40:29.795Z,14.7
2023-01-01T11:46:20.781Z,14.7
2023-01-01T11:52:12.589Z,14.7
2023-01-01T11:58:03.171Z,14.7
2023-01-01T12:03:59.253Z,14.7
2023-01-01T12:09:51.313Z,14.7
2023-01-01T12:15:41.886Z,14.7
2023-01-01T12:21:34.012Z,14.7
2023-01-01T12:27:23.804Z,14.7
2023-01-01T12:33:14.756Z,14.7
2023-01-01T12:39:05.363Z,14.7
2023-01-01T12:44:56.535Z,14.7
2023-01-01T12:53:29.971Z,14.8
2023-01-01T12:59:19.148Z,14.8
2023-01-01T13:05:09.490Z,14.7
2023-01-01T13:10:59.550Z,14.8
2023-01-01T13:16:51.945Z,14.8
2023-01-01T13:22:42.064Z,14.8
2023-01-01T13:28:32.514Z,14.8
2023-01-01T13:34:24.015Z,14.8
2023-01-01T13:40:14.613Z,14.8
2023-01-01T13:46:14.172Z,14.8
2023-01-01T13:52:06.201Z,14.8
2023-01-01T13:57:57.906Z,14.8
2023-01-01T14:03:48.731Z,14.8
2023-01-01T14:09:42.362Z,14.8
2023-01-01T14:15:48.533Z,14.8
2023-01-01T14:22:11.505Z,14.8
2023-01-01T14:28:23.732Z,14.8
2023-01-01T14:34:54.063Z,14.7
2023-01-01T14:47:04.091Z,14.7
2023-01-01T14:53:17.204Z,14.7
2023-01-01T14:59:30.245Z,14.7
2023-01-01T15:05:50.488Z,14.6
2023-01-01T15:12:12.639Z,14.6
2023-01-01T15:18:27.207Z,14.5
2023-01-01T15:24:35.233Z,14.4
2023-01-01T15:30:40.981Z,14.4
2023-01-01T15:36:40.059Z,14.4
2023-01-01T15:43:13.449Z,14.3
2023-01-01T15:49:35.398Z,14.3
2023-01-01T15:55:58.799Z,14.3
2023-01-01T16:02:15.603Z,14.3
2023-01-01T16:08:41.338Z,14.3
2023-01-01T16:14:59.943Z,14.2
2023-01-01T16:21:12.778Z,14.2
2023-01-01T16:27:32.708Z,14.2
2023-01-01T16:33:56.753Z,14.1
2023-01-01T16:40:19.684Z,14.2
2023-01-01T16:46:44.633Z,14.1
2023-01-01T16:53:00.868Z,14
2023-01-01T16:59:15.274Z,14
2023-01-01T17:05:05.988Z,14
2023-01-01T17:10:58.887Z,13.9
2023-01-01T17:16:56.067Z,13.9
2023-01-01T17:22:45.986Z,13.8
2023-01-01T17:28:36.033Z,13.8
2023-01-01T17:34:26.127Z,13.8
2023-01-01T17:40:16.682Z,13.9
2023-01-01T17:46:07.218Z,13.8
2023-01-01T17:51:57.697Z,13.8
2023-01-01T17:57:48.399Z,13.8
2023-01-01T18:03:37.431Z,13.8
2023-01-01T18:09:26.520Z,13.7
2023-01-01T18:15:16.080Z,13.7
2023-01-01T18:21:06.222Z,13.6
2023-01-01T18:26:56.244Z,13.5
2023-01-01T18:33:57.272Z,13.6
2023-01-01T18:39:48.560Z,13.6
2023-01-01T18:45:39.009Z,13.4
2023-01-01T18:51:29.145Z,13.4
2023-01-01T18:57:25.192Z,13.3
2023-01-01T19:03:18.649Z,13.3
2023-01-01T19:09:08.804Z,13.4
2023-01-01T19:14:59.134Z,13.4
2023-01-01T19:20:49.625Z,13.2
2023-01-01T19:26:39.778Z,13.2
2023-01-01T19:32:30.514Z,13.1
2023-01-01T19:38:21.391Z,13.1
2023-01-01T19:44:11.947Z,13
2023-01-01T19:50:10.886Z,13.1
2023-01-01T19:56:00.386Z,13.1
2023-01-01T20:02:10.141Z,13.1
2023-01-01T20:08:33.192Z,13.1
2023-01-01T20:14:23.666Z,13.1
2023-01-01T20:20:14.186Z,13.1
2023-01-01T20:27:10.585Z,13.2
2023-01-01T20:32:59.858Z,13.2
2023-01-01T20:38:50.730Z,13.1
2023-01-01T20:44:41.811Z,13.2
2023-01-01T20:50:32.343Z,13.1
2023-01-01T20:56:23.757Z,13.3
2023-01-01T21:02:14.300Z,13.3
2023-01-01T21:08:07.440Z,13.3
2023-01-01T21:13:58.543Z,13.4
2023-01-01T21:19:48.885Z,13.4
2023-01-01T21:25:54.847Z,13.4
2023-01-01T21:31:43.986Z,13.4
2023-01-01T21:37:35.071Z,13.4
2023-01-01T21:43:25.742Z,13.4
2023-01-01T21:49:16.966Z,13.4
2023-01-01T21:55:08.120Z,13.5
2023-01-01T22:00:58.546Z,13.5
2023-01-01T22:06:50.812Z,13.5
2023-01-01T22:12:41.286Z,13.6
2023-01-01T22:18:33.950Z,13.6
2023-01-01T22:24:25.843Z,13.7
2023-01-01T22:30:16.282Z,13.7
2023-01-01T22:36:07.377Z,13.7
2023-01-01T22:42:06.230Z,13.8
2023-01-01T22:55:05.507Z,13.8
2023-01-01T23:00:53.205Z,13.9
2023-01-01T23:06:46.328Z,13.9
2023-01-01T23:12:37.226Z,13.9
2023-01-01T23:18:29.014Z,13.9
2023-01-01T23:24:26.360Z,14
2023-01-01T23:30:23.038Z,14
2023-01-01T23:36:15.134Z,14
2023-01-01T23:42:07.836Z,14.1
2023-01-01T23:48:00.462Z,14.1
2023-01-01T23:53:52.646Z,14.1
2023-01-01T23:59:43.734Z,14.2
